createdAt,value
2019-04-19T00:00:28.894Z,0
2019-04-19T00:01:26.631Z,0
2019-04-19T00:02:46.609Z,0
2019-04-19T00:03:43.950Z,0
2019-04-19T00:04:33.542Z,0
2019-04-19T00:05:35.721Z,0
2019-04-19T00:06:43.209Z,0
2019-04-19T00:07:35.750Z,0
2019-04-19T00:09:34.267Z,0
2019-04-19T00:10:49.884Z,0
2019-04-19T00:11:58.017Z,0
2019-04-19T00:13:03.274Z,0
2019-04-19T00:13:30.380Z,0
2019-04-19T00:14:29.570Z,0
2019-04-19T00:15:29.188Z,0
2019-04-19T00:16:29.780Z,0
2019-04-19T00:17:39.928Z,0
2019-04-19T00:18:31.003Z,0
2019-04-19T00:21:06.692Z,0
2019-04-19T00:23:15.285Z,0
2019-04-19T00:23:56.783Z,0
2019-04-19T00:24:40.140Z,0
2019-04-19T00:25:40.664Z,0
2019-04-19T00:26:39.857Z,0
2019-04-19T00:28:03.918Z,0
2019-04-19T00:29:12.352Z,0
2019-04-19T00:30:28.803Z,0
2019-04-19T00:32:04.607Z,0
2019-04-19T00:33:36.307Z,0
2019-04-19T00:34:06.183Z,0
2019-04-19T00:34:58.768Z,0
2019-04-19T00:35:58.266Z,0
2019-04-19T00:36:58.026Z,0
2019-04-19T00:38:35.639Z,0
2019-04-19T00:40:26.202Z,0
2019-04-19T00:42:24.557Z,0
2019-04-19T00:44:06.491Z,0
2019-04-19T00:46:15.671Z,0
2019-04-19T00:48:11.825Z,0
2019-04-19T00:49:44.425Z,0
2019-04-19T00:51:14.180Z,0
2019-04-19T00:53:07.267Z,0
2019-04-19T00:54:24.803Z,0
2019-04-19T00:55:40.577Z,0
2019-04-19T00:56:49.954Z,0
2019-04-19T00:57:48.561Z,0
2019-04-19T00:58:37.404Z,0
2019-04-19T00:59:24.352Z,0
2019-04-19T01:00:34.915Z,0
2019-04-19T01:01:32.786Z,0
2019-04-19T01:02:28.098Z,0
2019-04-19T01:03:29.494Z,0
2019-04-19T01:04:36.687Z,0
2019-04-19T01:05:30.693Z,0
2019-04-19T01:06:41.693Z,0
2019-04-19T01:07:33.099Z,0
2019-04-19T01:08:29.153Z,0
2019-04-19T01:10:22.504Z,0
2019-04-19T01:12:02.974Z,0
2019-04-19T01:13:40.992Z,0
2019-04-19T01:15:13.679Z,0
2019-04-19T01:16:34.088Z,0
2019-04-19T01:18:25.107Z,0
2019-04-19T01:19:19.407Z,0
2019-04-19T01:20:11.931Z,0
2019-04-19T01:20:54.142Z,0
2019-04-19T01:21:53.051Z,0
2019-04-19T01:23:17.903Z,0
2019-04-19T01:24:06.763Z,0
2019-04-19T01:25:02.363Z,0
2019-04-19T01:26:13.937Z,0
2019-04-19T01:27:02.491Z,0
2019-04-19T01:27:52.980Z,0
2019-04-19T01:29:17.125Z,0
2019-04-19T01:30:04.484Z,0
2019-04-19T01:30:55.046Z,0
2019-04-19T01:32:18.498Z,0
2019-04-19T01:33:08.586Z,0
2019-04-19T01:33:56.628Z,0
2019-04-19T01:35:18.073Z,0
2019-04-19T01:36:01.997Z,0
2019-04-19T01:36:58.954Z,0
2019-04-19T01:38:12.211Z,0
2019-04-19T01:39:52.136Z,0
2019-04-19T01:41:45.264Z,0
2019-04-19T01:43:34.239Z,0
2019-04-19T01:45:19.867Z,0
2019-04-19T01:47:04.165Z,0
2019-04-19T01:48:56.702Z,0
2019-04-19T01:50:20.365Z,0
2019-04-19T01:52:40.580Z,0
2019-04-19T01:54:39.382Z,0
2019-04-19T01:55:40.413Z,0
2019-04-19T01:56:26.319Z,0
2019-04-19T01:57:20.081Z,0
2019-04-19T01:58:25.632Z,0
2019-04-19T01:59:14.381Z,0
2019-04-19T02:00:37.651Z,0
2019-04-19T02:01:35.011Z,0
2019-04-19T02:02:29.744Z,0
2019-04-19T02:03:16.996Z,0
2019-04-19T02:04:36.093Z,0
2019-04-19T02:05:25.520Z,0
2019-04-19T02:06:36.714Z,0
2019-04-19T02:07:32.638Z,0
2019-04-19T02:08:22.607Z,0
2019-04-19T02:09:24.415Z,0
2019-04-19T02:11:07.036Z,0
2019-04-19T02:12:25.969Z,0
2019-04-19T02:13:31.567Z,0
2019-04-19T02:14:35.438Z,0
2019-04-19T02:15:37.177Z,0
2019-04-19T02:16:16.779Z,0
2019-04-19T02:17:16.423Z,0
2019-04-19T02:18:02.793Z,0
2019-04-19T02:19:26.345Z,0
2019-04-19T02:20:17.010Z,0
2019-04-19T02:21:02.221Z,0
2019-04-19T02:22:28.418Z,0
2019-04-19T02:23:22.565Z,0
2019-04-19T02:24:10.408Z,0
2019-04-19T02:25:12.456Z,0
2019-04-19T02:26:21.238Z,0
2019-04-19T02:27:16.853Z,0
2019-04-19T02:28:01.166Z,0
2019-04-19T02:29:19.171Z,0
2019-04-19T02:30:47.745Z,0
2019-04-19T02:33:14.702Z,0
2019-04-19T02:36:07.864Z,0
2019-04-19T02:39:20.552Z,0
2019-04-19T02:42:23.698Z,0
2019-04-19T02:46:15.720Z,0
2019-04-19T02:50:08.481Z,0
2019-04-19T02:53:01.550Z,0
2019-04-19T02:56:23.357Z,0
2019-04-19T03:03:26.929Z,0
2019-04-19T03:06:08.545Z,0
2019-04-19T03:07:05.991Z,0
2019-04-19T03:07:41.208Z,0
2019-04-19T03:08:40.493Z,0
2019-04-19T03:09:53.646Z,0
2019-04-19T03:11:46.952Z,0
2019-04-19T03:13:39.928Z,0
2019-04-19T03:15:22.363Z,0
2019-04-19T03:17:50.436Z,0
2019-04-19T03:19:43.744Z,0
2019-04-19T03:21:20.283Z,4
2019-04-19T03:23:21.684Z,0
2019-04-19T03:25:18.102Z,0
2019-04-19T03:26:53.009Z,4
2019-04-19T03:28:06.944Z,4
2019-04-19T03:29:10.824Z,4
2019-04-19T03:30:14.061Z,4
2019-04-19T03:36:19.578Z,16
2019-04-19T03:38:15.494Z,20
2019-04-19T03:40:38.612Z,32
2019-04-19T03:43:06.238Z,48
2019-04-19T03:45:21.740Z,64
2019-04-19T03:48:04.205Z,100
2019-04-19T03:50:14.982Z,132
2019-04-19T03:52:25.763Z,168
2019-04-19T03:54:53.561Z,224
2019-04-19T03:57:15.204Z,280
2019-04-19T03:58:16.862Z,316
2019-04-19T03:58:44.103Z,332
2019-04-19T03:59:44.052Z,364
2019-04-19T04:00:43.520Z,396
2019-04-19T04:02:02.891Z,444
2019-04-19T04:02:56.313Z,476
2019-04-19T04:04:00.352Z,516
2019-04-19T04:05:09.593Z,564
2019-04-19T04:05:58.258Z,600
2019-04-19T04:06:52.539Z,636
2019-04-19T04:08:02.133Z,684
2019-04-19T04:09:09.268Z,748
2019-04-19T04:10:02.798Z,792
2019-04-19T04:10:52.356Z,836
2019-04-19T04:12:32.154Z,916
2019-04-19T04:13:59.704Z,1000
2019-04-19T04:15:36.857Z,1096
2019-04-19T04:16:47.039Z,1188
2019-04-19T04:17:10.388Z,1220
2019-04-19T04:18:09.769Z,1296
2019-04-19T04:19:08.792Z,1368
2019-04-19T04:20:09.762Z,1444
2019-04-19T04:21:12.613Z,1528
2019-04-19T04:22:28.194Z,1632
2019-04-19T04:23:37.399Z,1728
2019-04-19T04:24:51.922Z,1836
2019-04-19T04:25:57.010Z,1948
2019-04-19T04:26:59.985Z,2044
2019-04-19T04:28:29.873Z,2196
2019-04-19T04:29:41.694Z,2340
2019-04-19T04:31:05.468Z,2488
2019-04-19T04:31:57.839Z,2584
2019-04-19T04:33:35.650Z,2788
2019-04-19T04:34:59.597Z,2976
2019-04-19T04:37:01.550Z,3212
2019-04-19T04:38:20.573Z,3460
2019-04-19T04:38:54.586Z,3548
2019-04-19T04:39:43.317Z,3660
2019-04-19T04:40:44.352Z,3808
2019-04-19T04:41:48.963Z,3992
2019-04-19T04:43:37.651Z,4256
2019-04-19T04:45:57.495Z,4540
2019-04-19T04:48:03.460Z,4880
2019-04-19T04:50:30.203Z,5356
2019-04-19T04:52:16.769Z,5660
2019-04-19T04:52:52.664Z,5904
2019-04-19T04:53:40.880Z,6044
2019-04-19T04:54:44.076Z,6312
2019-04-19T04:56:02.170Z,6416
2019-04-19T04:57:15.822Z,6748
2019-04-19T04:58:05.756Z,6984
2019-04-19T04:58:52.434Z,7028
2019-04-19T04:59:52.482Z,7256
2019-04-19T05:01:12.362Z,7476
2019-04-19T05:02:40.795Z,7520
2019-04-19T05:04:32.921Z,7780
2019-04-19T05:06:29.187Z,8632
2019-04-19T05:08:44.783Z,8644
2019-04-19T05:10:42.834Z,9236
2019-04-19T05:13:10.267Z,9780
2019-04-19T05:15:10.716Z,10188
2019-04-19T05:17:56.632Z,10500
2019-04-19T05:20:09.023Z,11664
2019-04-19T05:22:04.355Z,12188
2019-04-19T05:24:08.645Z,12172
2019-04-19T05:28:59.464Z,13760
2019-04-19T05:29:56.235Z,13632
2019-04-19T05:31:00.320Z,14976
2019-04-19T05:32:04.676Z,15008
2019-04-19T05:32:57.761Z,14016
2019-04-19T05:34:59.704Z,16480
2019-04-19T05:36:54.366Z,15360
2019-04-19T05:38:57.187Z,16672
2019-04-19T05:40:53.116Z,15776
2019-04-19T05:42:30.160Z,16576
2019-04-19T05:47:40.174Z,16736
2019-04-19T05:49:07.635Z,17280
2019-04-19T05:51:27.374Z,19040
2019-04-19T05:53:22.058Z,18752
2019-04-19T05:54:11.636Z,19968
2019-04-19T05:54:47.841Z,20160
2019-04-19T05:55:48.343Z,19712
2019-04-19T05:57:39.701Z,20544
2019-04-19T05:59:05.693Z,22848
2019-04-19T06:01:54.718Z,20512
2019-04-19T06:03:14.533Z,22432
2019-04-19T06:05:09.943Z,22080
2019-04-19T06:07:29.918Z,22048
2019-04-19T06:08:36.361Z,22016
2019-04-19T06:09:04.537Z,21952
2019-04-19T06:10:09.534Z,22208
2019-04-19T06:11:15.195Z,22304
2019-04-19T06:12:26.597Z,21824
2019-04-19T06:13:19.092Z,21440
2019-04-19T06:15:53.764Z,21376
2019-04-19T06:17:27.584Z,22528
2019-04-19T06:19:16.477Z,22816
2019-04-19T06:21:22.901Z,23200
2019-04-19T06:23:18.823Z,23904
2019-04-19T06:25:38.915Z,24192
2019-04-19T06:29:01.012Z,34080
2019-04-19T06:31:45.959Z,36160
2019-04-19T06:33:53.242Z,43200
2019-04-19T06:35:43.347Z,46560
2019-04-19T06:36:19.247Z,47360
2019-04-19T06:37:32.544Z,49312
2019-04-19T06:38:07.823Z,49856
2019-04-19T06:39:07.755Z,50400
2019-04-19T06:40:36.539Z,57408
2019-04-19T06:41:28.420Z,61376
2019-04-19T06:42:31.765Z,64256
2019-04-19T06:43:51.634Z,60416
2019-04-19T06:45:39.852Z,49088
2019-04-19T06:47:13.145Z,42624
2019-04-19T06:48:14.196Z,41088
2019-04-19T06:49:13.174Z,42464
2019-04-19T06:49:44.058Z,42944
2019-04-19T06:50:59.613Z,40768
2019-04-19T06:52:20.821Z,43872
2019-04-19T06:52:47.129Z,45920
2019-04-19T06:54:09.361Z,48064
2019-04-19T06:54:51.681Z,49312
2019-04-19T06:56:05.733Z,50080
2019-04-19T06:57:18.598Z,46400
2019-04-19T06:58:22.680Z,40448
2019-04-19T06:59:41.780Z,39072
2019-04-19T07:01:14.233Z,38880
2019-04-19T07:02:02.501Z,36928
2019-04-19T07:02:43.362Z,35072
2019-04-19T07:03:42.695Z,32032
2019-04-19T07:05:36.873Z,31776
2019-04-19T07:07:33.039Z,34688
2019-04-19T07:10:42.452Z,43040
2019-04-19T07:13:04.013Z,40320
2019-04-19T07:14:21.216Z,44224
2019-04-19T07:16:01.586Z,44928
2019-04-19T07:18:02.095Z,45952
2019-04-19T07:19:53.793Z,46784
2019-04-19T07:21:46.709Z,47488
2019-04-19T07:23:38.461Z,44352
2019-04-19T07:26:20.033Z,48192
2019-04-19T07:28:08.304Z,46688
2019-04-19T07:28:41.849Z,46944
2019-04-19T07:29:27.358Z,48416
2019-04-19T07:30:28.700Z,52896
2019-04-19T07:31:28.403Z,58016
2019-04-19T07:33:02.158Z,62112
2019-04-19T07:34:19.507Z,64928
2019-04-19T07:36:28.472Z,67168
2019-04-19T07:38:26.740Z,56192
2019-04-19T07:40:36.566Z,77408
2019-04-19T07:42:56.115Z,85664
2019-04-19T07:44:28.093Z,89504
2019-04-19T07:45:22.842Z,85632
2019-04-19T07:47:17.342Z,75264
2019-04-19T07:48:18.331Z,82368
2019-04-19T07:48:45.535Z,85440
2019-04-19T07:52:21.253Z,80800
2019-04-19T07:53:05.857Z,83904
2019-04-19T07:53:58.618Z,88416
2019-04-19T07:55:00.869Z,87840
2019-04-19T07:56:43.938Z,76864
2019-04-19T07:59:54.317Z,62752
2019-04-19T08:02:54.427Z,57152
2019-04-19T08:09:01.621Z,51488
2019-04-19T08:12:16.481Z,49312
2019-04-19T08:27:19.610Z,61312
2019-04-19T08:28:43.049Z,44384
2019-04-19T08:29:59.904Z,10884
2019-04-19T08:30:55.843Z,8684
2019-04-19T08:31:25.614Z,8600
2019-04-19T08:32:23.295Z,8552
2019-04-19T08:33:21.567Z,8528
2019-04-19T08:35:02.364Z,8500
2019-04-19T08:35:31.768Z,8488
2019-04-19T08:36:58.404Z,8456
2019-04-19T08:37:48.560Z,8432
2019-04-19T08:38:41.402Z,8420
2019-04-19T08:40:56.984Z,8372
2019-04-19T08:42:59.623Z,8336
2019-04-19T08:44:49.064Z,8300
2019-04-19T08:45:29.004Z,8292
2019-04-19T08:46:12.065Z,8288
2019-04-19T08:47:55.691Z,8284
2019-04-19T08:48:55.397Z,8252
2019-04-19T08:49:45.141Z,8232
2019-04-19T08:50:23.058Z,8216
2019-04-19T08:51:30.970Z,8196
2019-04-19T08:52:37.332Z,8164
2019-04-19T08:54:36.642Z,8120
2019-04-19T08:56:29.055Z,8084
2019-04-19T08:57:23.950Z,8068
2019-04-19T08:58:43.190Z,8040
2019-04-19T09:01:08.543Z,7992
2019-04-19T09:03:02.791Z,7940
2019-04-19T09:05:08.593Z,7912
2019-04-19T09:08:16.913Z,7864
2019-04-19T09:10:33.167Z,7808
2019-04-19T09:12:57.438Z,7760
2019-04-19T09:14:56.135Z,7720
